sensor_id;sensor_type;location;lat;lon;timestamp;pressure;altitude;pressure_sealevel;temperature;humidity
12468;BME280;57850;52.922;6.256;2023-01-28T00:01:05;103349.97;;;8.01;100.00
12468;BME280;57850;52.922;6.256;2023-01-28T00:03:34;103357.88;;;8.08;100.00
12468;BME280;57850;52.922;6.256;2023-01-28T00:06:03;103356.19;;;8.12;100.00
12468;BME280;57850;52.922;6.256;2023-01-28T00:08:30;103361.34;;;8.09;100.00
12468;BME280;57850;52.922;6.256;2023-01-28T00:10:58;103363.16;;;8.15;100.00
12468;BME280;57850;52.922;6.256;2023-01-28T00:13:26;103362.28;;;8.11;100.00
12468;BME280;57850;52.922;6.256;2023-01-28T00:15:58;103369.91;;;8.02;100.00
12468;BME280;57850;52.922;6.256;2023-01-28T00:18:25;103361.13;;;7.92;100.00
12468;BME280;57850;52.922;6.256;2023-01-28T00:21:00;103364.56;;;7.91;100.00
12468;BME280;57850;52.922;6.256;2023-01-28T00:23:32;103347.44;;;8.05;100.00
12468;BME280;57850;52.922;6.256;2023-01-28T00:26:00;103350.06;;;8.07;100.00
12468;BME280;57850;52.922;6.256;2023-01-28T00:28:30;103366.97;;;7.81;100.00
12468;BME280;57850;52.922;6.256;2023-01-28T00:31:04;103369.56;;;7.81;100.00
12468;BME280;57850;52.922;6.256;2023-01-28T00:33:31;103360.16;;;7.86;100.00
12468;BME280;57850;52.922;6.256;2023-01-28T00:36:00;103365.44;;;7.93;100.00
12468;BME280;57850;52.922;6.256;2023-01-28T00:38:28;103355.03;;;7.92;100.00
12468;BME280;57850;52.922;6.256;2023-01-28T00:40:55;103351.75;;;8.03;100.00
12468;BME280;57850;52.922;6.256;2023-01-28T00:43:21;103364.47;;;7.85;100.00
12468;BME280;57850;52.922;6.256;2023-01-28T00:45:48;103348.13;;;7.92;100.00
12468;BME280;57850;52.922;6.256;2023-01-28T00:48:15;103354.22;;;7.94;100.00
12468;BME280;57850;52.922;6.256;2023-01-28T00:50:41;103348.91;;;7.88;100.00
12468;BME280;57850;52.922;6.256;2023-01-28T00:53:11;103363.41;;;7.74;100.00
12468;BME280;57850;52.922;6.256;2023-01-28T00:55:37;103363.59;;;7.85;100.00
12468;BME280;57850;52.922;6.256;2023-01-28T00:58:04;103355.75;;;7.83;100.00
12468;BME280;57850;52.922;6.256;2023-01-28T01:00:31;103370.22;;;7.68;100.00
12468;BME280;57850;52.922;6.256;2023-01-28T01:03:06;103371.06;;;7.65;100.00
12468;BME280;57850;52.922;6.256;2023-01-28T01:05:32;103372.78;;;7.65;100.00
12468;BME280;57850;52.922;6.256;2023-01-28T01:07:59;103377.81;;;7.54;100.00
12468;BME280;57850;52.922;6.256;2023-01-28T01:10:30;103363.41;;;7.73;100.00
12468;BME280;57850;52.922;6.256;2023-01-28T01:12:59;103368.56;;;7.71;100.00
12468;BME280;57850;52.922;6.256;2023-01-28T01:15:26;103370.28;;;7.71;100.00
12468;BME280;57850;52.922;6.256;2023-01-28T01:17:53;103380.72;;;7.72;100.00
12468;BME280;57850;52.922;6.256;2023-01-28T01:20:23;103388.16;;;7.52;100.00
12468;BME280;57850;52.922;6.256;2023-01-28T01:22:50;103377.88;;;7.59;100.00
12468;BME280;57850;52.922;6.256;2023-01-28T01:25:18;103380.50;;;7.60;100.00
12468;BME280;57850;52.922;6.256;2023-01-28T01:27:47;103379.84;;;7.72;100.00
12468;BME280;57850;52.922;6.256;2023-01-28T01:30:15;103377.81;;;7.54;100.00
12468;BME280;57850;52.922;6.256;2023-01-28T01:32:42;103383.09;;;7.60;100.00
12468;BME280;57850;52.922;6.256;2023-01-28T01:35:09;103369.38;;;7.69;100.00
12468;BME280;57850;52.922;6.256;2023-01-28T01:37:36;103379.00;;;7.73;100.00
12468;BME280;57850;52.922;6.256;2023-01-28T01:40:04;103361.81;;;7.82;100.00
12468;BME280;57850;52.922;6.256;2023-01-28T01:42:32;103379.09;;;7.80;100.00
12468;BME280;57850;52.922;6.256;2023-01-28T01:45:02;103384.25;;;7.77;100.00
12468;BME280;57850;52.922;6.256;2023-01-28T01:47:36;103374.69;;;7.73;100.00
12468;BME280;57850;52.922;6.256;2023-01-28T01:50:12;103369.47;;;7.73;100.00
12468;BME280;57850;52.922;6.256;2023-01-28T01:52:45;103380.63;;;7.68;100.00
12468;BME280;57850;52.922;6.256;2023-01-28T01:55:16;103378.91;;;7.67;100.00
12468;BME280;57850;52.922;6.256;2023-01-28T01:57:45;103378.06;;;7.69;100.00
12468;BME280;57850;52.922;6.256;2023-01-28T02:00:16;103391.91;;;7.68;100.00
12468;BME280;57850;52.922;6.256;2023-01-28T02:02:45;103394.47;;;7.67;100.00
12468;BME280;57850;52.922;6.256;2023-01-28T02:05:17;103384.19;;;7.74;100.00
12468;BME280;57850;52.922;6.256;2023-01-28T02:07:45;103398.84;;;7.69;100.00
12468;BME280;57850;52.922;6.256;2023-01-28T02:10:13;103395.38;;;7.67;100.00
12468;BME280;57850;52.922;6.256;2023-01-28T02:12:42;103398.81;;;7.66;100.00
12468;BME280;57850;52.922;6.256;2023-01-28T02:15:15;103398.91;;;7.72;100.00
12468;BME280;57850;52.922;6.256;2023-01-28T02:17:43;103402.34;;;7.70;100.00
12468;BME280;57850;52.922;6.256;2023-01-28T02:20:11;103384.38;;;7.85;100.00
12468;BME280;57850;52.922;6.256;2023-01-28T02:25:55;103414.84;;;7.44;100.00
12468;BME280;57850;52.922;6.256;2023-01-28T02:28:31;103425.91;;;7.32;100.00
12468;BME280;57850;52.922;6.256;2023-01-28T02:31:03;103408.22;;;7.60;100.00
12468;BME280;57850;52.922;6.256;2023-01-28T02:33:38;103410.03;;;7.65;100.00
12468;BME280;57850;52.922;6.256;2023-01-28T02:36:14;103395.41;;;7.72;100.00
12468;BME280;57850;52.922;6.256;2023-01-28T02:38:45;103390.31;;;7.78;100.00
12468;BME280;57850;52.922;6.256;2023-01-28T02:41:19;103380.91;;;7.83;100.00
12468;BME280;57850;52.922;6.256;2023-01-28T02:43:48;103379.84;;;7.72;100.00
12468;BME280;57850;52.922;6.256;2023-01-28T02:46:19;103384.00;;;7.62;100.00
12468;BME280;57850;52.922;6.256;2023-01-28T02:49:07;103391.78;;;7.62;100.00
12468;BME280;57850;52.922;6.256;2023-01-28T02:51:49;103381.34;;;7.59;100.00
12468;BME280;57850;52.922;6.256;2023-01-28T02:54:24;103387.47;;;7.63;100.00
12468;BME280;57850;52.922;6.256;2023-01-28T02:57:01;103390.13;;;7.66;100.00
12468;BME280;57850;52.922;6.256;2023-01-28T02:59:38;103395.91;;;7.49;100.00
12468;BME280;57850;52.922;6.256;2023-01-28T03:02:12;103389.09;;;7.54;100.00
12468;BME280;57850;52.922;6.256;2023-01-28T03:04:46;103392.72;;;7.64;100.00
12468;BME280;57850;52.922;6.256;2023-01-28T03:07:16;103392.66;;;7.63;100.00
12468;BME280;57850;52.922;6.256;2023-01-28T03:09:45;103398.53;;;7.51;100.00
12468;BME280;57850;52.922;6.256;2023-01-28T03:12:15;103403.53;;;7.40;100.00
12468;BME280;57850;52.922;6.256;2023-01-28T03:15:06;103411.06;;;7.27;100.00
12468;BME280;57850;52.922;6.256;2023-01-28T03:17:54;103406.75;;;7.26;100.00
12468;BME280;57850;52.922;6.256;2023-01-28T03:20:45;103394.81;;;7.35;100.00
12468;BME280;57850;52.922;6.256;2023-01-28T03:23:36;103399.28;;;7.44;100.00
12468;BME280;57850;52.922;6.256;2023-01-28T03:26:22;103401.00;;;7.43;100.00
12468;BME280;57850;52.922;6.256;2023-01-28T03:29:11;103399.13;;;7.35;100.00
12468;BME280;57850;52.922;6.256;2023-01-28T03:32:01;103390.81;;;7.55;100.00
12468;BME280;57850;52.922;6.256;2023-01-28T03:34:46;103393.44;;;7.57;100.00
12468;BME280;57850;52.922;6.256;2023-01-28T03:37:31;103386.34;;;7.47;100.00
12468;BME280;57850;52.922;6.256;2023-01-28T03:40:01;103400.88;;;7.37;100.00
12468;BME280;57850;52.922;6.256;2023-01-28T03:42:30;103394.97;;;7.44;100.00
12468;BME280;57850;52.922;6.256;2023-01-28T03:44:57;103394.47;;;7.67;100.00
12468;BME280;57850;52.922;6.256;2023-01-28T03:47:28;103386.69;;;7.68;100.00
12468;BME280;57850;52.922;6.256;2023-01-28T03:49:57;103389.28;;;7.67;100.00
12468;BME280;57850;52.922;6.256;2023-01-28T03:52:27;103404.31;;;7.35;100.00
12468;BME280;57850;52.922;6.256;2023-01-28T03:54:56;103408.94;;;7.51;100.00
12468;BME280;57850;52.922;6.256;2023-01-28T03:57:24;103412.56;;;7.62;100.00
12468;BME280;57850;52.922;6.256;2023-01-28T03:59:52;103419.28;;;7.49;100.00
12468;BME280;57850;52.922;6.256;2023-01-28T04:02:20;103415.81;;;7.49;100.00
12468;BME280;57850;52.922;6.256;2023-01-28T04:04:48;103418.41;;;7.49;100.00
12468;BME280;57850;52.922;6.256;2023-01-28T04:07:15;103410.72;;;7.55;100.00
12468;BME280;57850;52.922;6.256;2023-01-28T04:09:42;103407.28;;;7.56;100.00
12468;BME280;57850;52.922;6.256;2023-01-28T04:12:09;103414.13;;;7.51;100.00
12468;BME280;57850;52.922;6.256;2023-01-28T04:14:36;103418.44;;;7.50;100.00
12468;BME280;57850;52.922;6.256;2023-01-28T04:17:04;103414.09;;;7.49;100.00
12468;BME280;57850;52.922;6.256;2023-01-28T04:19:31;103412.31;;;7.45;100.00
12468;BME280;57850;52.922;6.256;2023-01-28T04:22:03;103417.31;;;7.36;100.00
12468;BME280;57850;52.922;6.256;2023-01-28T04:24:30;103428.41;;;7.28;100.00
12468;BME280;57850;52.922;6.256;2023-01-28T04:26:56;103414.81;;;7.41;100.00
12468;BME280;57850;52.922;6.256;2023-01-28T04:29:23;103431.41;;;7.04;100.00
12468;BME280;57850;52.922;6.256;2023-01-28T04:31:49;103419.25;;;7.02;100.00
12468;BME280;57850;52.922;6.256;2023-01-28T04:34:16;103441.56;;;6.53;100.00
12468;BME280;57850;52.922;6.256;2023-01-28T04:36:44;103426.56;;;6.80;100.00
12468;BME280;57850;52.922;6.256;2023-01-28T04:39:12;103457.31;;;6.25;100.00
12468;BME280;57850;52.922;6.256;2023-01-28T04:41:39;103422.25;;;6.79;100.00
12468;BME280;57850;52.922;6.256;2023-01-28T04:44:05;103397.91;;;7.18;100.00
12468;BME280;57850;52.922;6.256;2023-01-28T04:46:32;103381.03;;;7.42;100.00
12468;BME280;57850;52.922;6.256;2023-01-28T04:49:01;103412.78;;;6.83;100.00
12468;BME280;57850;52.922;6.256;2023-01-28T04:51:28;103426.50;;;6.76;100.00
12468;BME280;57850;52.922;6.256;2023-01-28T04:53:55;103409.72;;;7.00;100.00
12468;BME280;57850;52.922;6.256;2023-01-28T04:56:23;103416.38;;;6.89;100.00
12468;BME280;57850;52.922;6.256;2023-01-28T04:58:49;103409.09;;;7.14;100.00
12468;BME280;57850;52.922;6.256;2023-01-28T05:01:16;103407.69;;;7.31;100.00
12468;BME280;57850;52.922;6.256;2023-01-28T05:03:43;103415.28;;;7.20;100.00
12468;BME280;57850;52.922;6.256;2023-01-28T05:06:09;103414.59;;;7.30;100.00
12468;BME280;57850;52.922;6.256;2023-01-28T05:08:36;103419.16;;;7.42;100.00
12468;BME280;57850;52.922;6.256;2023-01-28T05:11:03;103408.78;;;7.42;100.00
12468;BME280;57850;52.922;6.256;2023-01-28T05:13:31;103400.16;;;7.46;100.00
12468;BME280;57850;52.922;6.256;2023-01-28T05:15:58;103407.16;;;7.48;100.00
12468;BME280;57850;52.922;6.256;2023-01-28T05:18:27;103404.41;;;7.41;100.00
12468;BME280;57850;52.922;6.256;2023-01-28T05:20:53;103406.63;;;7.20;100.00
12468;BME280;57850;52.922;6.256;2023-01-28T05:23:20;103407.41;;;7.16;100.00
12468;BME280;57850;52.922;6.256;2023-01-28T05:25:46;103401.66;;;7.33;100.00
12468;BME280;57850;52.922;6.256;2023-01-28T05:28:13;103392.22;;;7.37;100.00
12468;BME280;57850;52.922;6.256;2023-01-28T05:30:41;103401.09;;;7.03;100.00
12468;BME280;57850;52.922;6.256;2023-01-28T05:33:08;103421.84;;;6.61;100.00
12468;BME280;57850;52.922;6.256;2023-01-28T05:35:34;103433.66;;;6.47;100.00
12468;BME280;57850;52.922;6.256;2023-01-28T05:38:01;103390.88;;;7.12;100.00
12468;BME280;57850;52.922;6.256;2023-01-28T05:40:28;103391.59;;;7.04;100.00
12468;BME280;57850;52.922;6.256;2023-01-28T05:42:55;103391.88;;;7.17;100.00
12468;BME280;57850;52.922;6.256;2023-01-28T05:45:22;103398.50;;;7.02;100.00
12468;BME280;57850;52.922;6.256;2023-01-28T05:47:50;103396.91;;;7.11;100.00
12468;BME280;57850;52.922;6.256;2023-01-28T05:50:17;103389.56;;;7.34;100.00
12468;BME280;57850;52.922;6.256;2023-01-28T05:52:43;103385.50;;;7.49;100.00
12468;BME280;57850;52.922;6.256;2023-01-28T05:55:10;103383.66;;;7.42;100.00
12468;BME280;57850;52.922;6.256;2023-01-28T05:57:37;103392.81;;;7.24;100.00
12468;BME280;57850;52.922;6.256;2023-01-28T06:00:04;103398.84;;;7.20;100.00
12468;BME280;57850;52.922;6.256;2023-01-28T06:02:31;103401.44;;;7.20;100.00
12468;BME280;57850;52.922;6.256;2023-01-28T06:05:02;103401.16;;;7.05;100.00
12468;BME280;57850;52.922;6.256;2023-01-28T06:07:31;103412.00;;;6.87;100.00
12468;BME280;57850;52.922;6.256;2023-01-28T06:09:58;103396.84;;;7.07;100.00
12468;BME280;57850;52.922;6.256;2023-01-28T06:12:25;103409.47;;;6.90;100.00
12468;BME280;57850;52.922;6.256;2023-01-28T06:14:52;103406.22;;;6.58;100.00
12468;BME280;57850;52.922;6.256;2023-01-28T06:17:18;103416.56;;;6.57;100.00
12468;BME280;57850;52.922;6.256;2023-01-28T06:19:45;103411.00;;;6.80;100.00
12468;BME280;57850;52.922;6.256;2023-01-28T06:22:13;103399.50;;;7.10;100.00
12468;BME280;57850;52.922;6.256;2023-01-28T06:24:39;103406.34;;;7.05;100.00
12468;BME280;57850;52.922;6.256;2023-01-28T06:27:06;103401.16;;;7.05;100.00
12468;BME280;57850;52.922;6.256;2023-01-28T06:29:32;103387.56;;;7.21;100.00
12468;BME280;57850;52.922;6.256;2023-01-28T06:32:03;103415.59;;;6.92;100.00
12468;BME280;57850;52.922;6.256;2023-01-28T06:34:32;103413.84;;;6.91;100.00
12468;BME280;57850;52.922;6.256;2023-01-28T06:37:01;103435.97;;;6.36;100.00
12468;BME280;57850;52.922;6.256;2023-01-28T06:39:32;103430.34;;;6.54;100.00
12468;BME280;57850;52.922;6.256;2023-01-28T06:41:59;103418.91;;;6.86;100.00
12468;BME280;57850;52.922;6.256;2023-01-28T06:44:26;103415.25;;;6.77;100.00
12468;BME280;57850;52.922;6.256;2023-01-28T06:46:52;103420.63;;;6.84;100.00
12468;BME280;57850;52.922;6.256;2023-01-28T06:49:19;103418.47;;;6.65;100.00
12468;BME280;57850;52.922;6.256;2023-01-28T06:51:46;103420.88;;;6.56;100.00
12468;BME280;57850;52.922;6.256;2023-01-28T06:54:13;103418.25;;;6.55;100.00
12468;BME280;57850;52.922;6.256;2023-01-28T06:56:41;103431.94;;;6.47;100.00
12468;BME280;57850;52.922;6.256;2023-01-28T06:59:08;103417.78;;;6.74;100.00
12468;BME280;57850;52.922;6.256;2023-01-28T07:01:35;103439.34;;;6.70;100.00
12468;BME280;57850;52.922;6.256;2023-01-28T07:04:01;103435.41;;;6.88;100.00
12468;BME280;57850;52.922;6.256;2023-01-28T07:06:28;103427.34;;;7.17;100.00
12468;BME280;57850;52.922;6.256;2023-01-28T07:08:55;103433.75;;;6.92;100.00
12468;BME280;57850;52.922;6.256;2023-01-28T07:11:21;103429.00;;;7.13;100.00
12468;BME280;57850;52.922;6.256;2023-01-28T07:13:49;103418.06;;;7.29;100.00
12468;BME280;57850;52.922;6.256;2023-01-28T07:16:16;103441.50;;;6.90;100.00
12468;BME280;57850;52.922;6.256;2023-01-28T07:18:42;103465.09;;;6.62;100.00
12468;BME280;57850;52.922;6.256;2023-01-28T07:21:09;103448.44;;;6.91;100.00
12468;BME280;57850;52.922;6.256;2023-01-28T07:23:35;103444.41;;;7.06;100.00
12468;BME280;57850;52.922;6.256;2023-01-28T07:26:05;103443.28;;;6.93;100.00
12468;BME280;57850;52.922;6.256;2023-01-28T07:28:31;103486.44;;;6.15;100.00
12468;BME280;57850;52.922;6.256;2023-01-28T07:31:01;103485.09;;;6.29;100.00
12468;BME280;57850;52.922;6.256;2023-01-28T07:33:28;103467.44;;;6.50;100.00
12468;BME280;57850;52.922;6.256;2023-01-28T07:35:55;103459.97;;;6.64;100.00
12468;BME280;57850;52.922;6.256;2023-01-28T07:38:21;103468.13;;;6.43;100.00
12468;BME280;57850;52.922;6.256;2023-01-28T07:40:48;103448.06;;;6.73;100.00
12468;BME280;57850;52.922;6.256;2023-01-28T07:43:15;103476.75;;;6.42;100.00
12468;BME280;57850;52.922;6.256;2023-01-28T07:45:41;103465.88;;;6.58;100.00
12468;BME280;57850;52.922;6.256;2023-01-28T07:48:11;103472.69;;;6.53;100.00
12468;BME280;57850;52.922;6.256;2023-01-28T07:50:38;103469.41;;;6.62;100.00
12468;BME280;57850;52.922;6.256;2023-01-28T07:53:06;103467.44;;;6.50;100.00
12468;BME280;57850;52.922;6.256;2023-01-28T07:55:33;103485.63;;;6.16;100.00
12468;BME280;57850;52.922;6.256;2023-01-28T07:58:02;103488.00;;;6.07;100.00
12468;BME280;57850;52.922;6.256;2023-01-28T08:00:32;103486.44;;;6.15;100.00
12468;BME280;57850;52.922;6.256;2023-01-28T08:03:00;103498.47;;;5.80;100.00
12468;BME280;57850;52.922;6.256;2023-01-28T08:05:36;103490.34;;;5.98;100.00
12468;BME280;57850;52.922;6.256;2023-01-28T08:08:05;103496.19;;;6.23;100.00
12468;BME280;57850;52.922;6.256;2023-01-28T08:10:32;103480.00;;;6.33;100.00
12468;BME280;57850;52.922;6.256;2023-01-28T08:12:58;103473.50;;;6.51;100.00
12468;BME280;57850;52.922;6.256;2023-01-28T08:15:28;103472.72;;;6.55;100.00
12468;BME280;57850;52.922;6.256;2023-01-28T08:17:58;103469.19;;;6.51;100.00
12468;BME280;57850;52.922;6.256;2023-01-28T08:20:26;103489.25;;;6.24;100.00
12468;BME280;57850;52.922;6.256;2023-01-28T08:23:03;103481.44;;;6.58;100.00
12468;BME280;57850;52.922;6.256;2023-01-28T08:25:30;103500.94;;;6.42;100.00
12468;BME280;57850;52.922;6.256;2023-01-28T08:27:57;103504.06;;;6.28;100.00
12468;BME280;57850;52.922;6.256;2023-01-28T08:30:23;103505.59;;;6.20;100.00
12468;BME280;57850;52.922;6.256;2023-01-28T08:32:50;103508.63;;;6.38;100.00
12468;BME280;57850;52.922;6.256;2023-01-28T08:35:16;103516.03;;;6.23;100.00
12468;BME280;57850;52.922;6.256;2023-01-28T08:37:43;103491.94;;;6.64;100.00
12468;BME280;57850;52.922;6.256;2023-01-28T08:40:11;103499.88;;;6.70;100.00
12468;BME280;57850;52.922;6.256;2023-01-28T08:42:38;103421.75;;;7.91;100.00
12468;BME280;57850;52.922;6.256;2023-01-28T08:45:06;103381.91;;;8.51;100.00
12468;BME280;57850;52.922;6.256;2023-01-28T08:47:32;103365.94;;;8.91;100.00
12468;BME280;57850;52.922;6.256;2023-01-28T08:50:00;103318.09;;;9.78;100.00
12468;BME280;57850;52.922;6.256;2023-01-28T08:52:26;103297.44;;;10.11;100.00
12468;BME280;57850;52.922;6.256;2023-01-28T08:54:53;103274.97;;;10.47;100.00
12468;BME280;57850;52.922;6.256;2023-01-28T08:57:21;103255.88;;;10.54;100.00
12468;BME280;57850;52.922;6.256;2023-01-28T08:59:47;103249.84;;;10.88;100.00
12468;BME280;57850;52.922;6.256;2023-01-28T09:02:14;103257.69;;;10.82;100.00
12468;BME280;57850;52.922;6.256;2023-01-28T09:04:40;103314.72;;;9.94;100.00
12468;BME280;57850;52.922;6.256;2023-01-28T09:07:07;103319.09;;;9.98;100.00
12468;BME280;57850;52.922;6.256;2023-01-28T09:09:34;103367.13;;;9.22;100.00
12468;BME280;57850;52.922;6.256;2023-01-28T09:12:00;103343.97;;;9.55;100.00
12468;BME280;57850;52.922;6.256;2023-01-28T09:14:28;103350.00;;;9.50;100.00
12468;BME280;57850;52.922;6.256;2023-01-28T09:16:57;103314.78;;;10.06;100.00
12468;BME280;57850;52.922;6.256;2023-01-28T09:19:24;103265.50;;;10.85;100.00
12468;BME280;57850;52.922;6.256;2023-01-28T09:21:50;103256.81;;;11.09;100.00
12468;BME280;57850;52.922;6.256;2023-01-28T09:24:17;103269.84;;;10.72;100.00
12468;BME280;57850;52.922;6.256;2023-01-28T09:26:44;103176.22;;;12.49;100.00
12468;BME280;57850;52.922;6.256;2023-01-28T09:29:10;103185.06;;;12.25;100.00
12468;BME280;57850;52.922;6.256;2023-01-28T09:31:38;103189.34;;;12.46;100.00
12468;BME280;57850;52.922;6.256;2023-01-28T09:34:05;103221.91;;;11.69;100.00
12468;BME280;57850;52.922;6.256;2023-01-28T09:36:32;103166.34;;;12.82;100.00
12468;BME280;57850;52.922;6.256;2023-01-28T09:38:58;103159.34;;;12.84;100.00
12468;BME280;57850;52.922;6.256;2023-01-28T09:41:27;103122.34;;;13.21;100.00
12468;BME280;57850;52.922;6.256;2023-01-28T09:44:03;103156.84;;;12.69;100.00
12468;BME280;57850;52.922;6.256;2023-01-28T09:46:32;103072.22;;;14.11;100.00
12468;BME280;57850;52.922;6.256;2023-01-28T09:49:04;103077.50;;;14.09;100.00
12468;BME280;57850;52.922;6.256;2023-01-28T09:51:39;103112.72;;;13.24;100.00
12468;BME280;57850;52.922;6.256;2023-01-28T09:54:14;103075.00;;;14.00;100.00
12468;BME280;57850;52.922;6.256;2023-01-28T09:56:45;103056.16;;;14.29;100.00
12468;BME280;57850;52.922;6.256;2023-01-28T09:59:18;103100.31;;;14.04;100.00
12468;BME280;57850;52.922;6.256;2023-01-28T10:01:50;103180.91;;;11.86;100.00
12468;BME280;57850;52.922;6.256;2023-01-28T10:04:28;103249.00;;;11.15;100.00
12468;BME280;57850;52.922;6.256;2023-01-28T10:07:08;103262.06;;;11.07;100.00
12468;BME280;57850;52.922;6.256;2023-01-28T10:09:45;103195.44;;;12.49;100.00
12468;BME280;57850;52.922;6.256;2023-01-28T10:12:40;103157.56;;;12.88;100.00
12468;BME280;57850;52.922;6.256;2023-01-28T10:18:05;103157.56;;;12.89;100.00
12468;BME280;57850;52.922;6.256;2023-01-28T10:20:39;103210.59;;;11.77;100.00
12468;BME280;57850;52.922;6.256;2023-01-28T10:23:13;103092.56;;;13.97;100.00
12468;BME280;57850;52.922;6.256;2023-01-28T10:25:42;103085.78;;;13.79;100.00
12468;BME280;57850;52.922;6.256;2023-01-28T10:28:18;103105.53;;;13.40;100.00
12468;BME280;57850;52.922;6.256;2023-01-28T10:30:47;103037.25;;;15.10;100.00
12468;BME280;57850;52.922;6.256;2023-01-28T10:33:18;103068.75;;;13.45;100.00
12468;BME280;57850;52.922;6.256;2023-01-28T10:35:47;103064.38;;;13.47;100.00
12468;BME280;57850;52.922;6.256;2023-01-28T10:38:18;103061.44;;;13.71;100.00
12468;BME280;57850;52.922;6.256;2023-01-28T10:40:45;102973.06;;;15.18;100.00
12468;BME280;57850;52.922;6.256;2023-01-28T10:43:13;103022.31;;;14.12;100.00
12468;BME280;57850;52.922;6.256;2023-01-28T10:45:46;102926.38;;;16.03;100.00
12468;BME280;57850;52.922;6.256;2023-01-28T10:48:22;102953.06;;;14.67;100.00
12468;BME280;57850;52.922;6.256;2023-01-28T10:50:52;102949.03;;;14.49;100.00
12468;BME280;57850;52.922;6.256;2023-01-28T10:53:19;102927.63;;;15.51;100.00
12468;BME280;57850;52.922;6.256;2023-01-28T10:55:49;102884.94;;;16.10;100.00
12468;BME280;57850;52.922;6.256;2023-01-28T10:58:19;102897.19;;;15.77;99.94
12468;BME280;57850;52.922;6.256;2023-01-28T11:00:52;102908.94;;;16.31;96.69
12468;BME280;57850;52.922;6.256;2023-01-28T11:03:19;102856.38;;;16.57;100.00
12468;BME280;57850;52.922;6.256;2023-01-28T11:05:51;102864.09;;;16.94;96.85
12468;BME280;57850;52.922;6.256;2023-01-28T11:08:19;102887.19;;;16.55;95.71
12468;BME280;57850;52.922;6.256;2023-01-28T11:10:46;102885.19;;;15.27;100.00
12468;BME280;57850;52.922;6.256;2023-01-28T11:13:16;102951.28;;;14.21;99.88
12468;BME280;57850;52.922;6.256;2023-01-28T11:15:46;102974.47;;;13.95;100.00
12468;BME280;57850;52.922;6.256;2023-01-28T11:18:17;103012.94;;;13.35;100.00
12468;BME280;57850;52.922;6.256;2023-01-28T11:20:52;103037.50;;;13.28;100.00
12468;BME280;57850;52.922;6.256;2023-01-28T11:23:23;103023.09;;;13.61;100.00
12468;BME280;57850;52.922;6.256;2023-01-28T11:26:03;103041.69;;;13.43;100.00
12468;BME280;57850;52.922;6.256;2023-01-28T11:28:31;103050.31;;;13.51;100.00
12468;BME280;57850;52.922;6.256;2023-01-28T11:31:00;103102.91;;;12.49;100.00
12468;BME280;57850;52.922;6.256;2023-01-28T11:33:32;103120.53;;;12.27;100.00
12468;BME280;57850;52.922;6.256;2023-01-28T11:36:07;103125.63;;;12.47;100.00
12468;BME280;57850;52.922;6.256;2023-01-28T11:38:34;103089.34;;;12.99;100.00
12468;BME280;57850;52.922;6.256;2023-01-28T11:41:01;103090.13;;;13.11;100.00
12468;BME280;57850;52.922;6.256;2023-01-28T11:43:30;103092.22;;;12.74;100.00
12468;BME280;57850;52.922;6.256;2023-01-28T11:46:19;103043.28;;;13.54;100.00
12468;BME280;57850;52.922;6.256;2023-01-28T11:48:52;103082.53;;;12.84;100.00
12468;BME280;57850;52.922;6.256;2023-01-28T11:51:31;103098.44;;;12.60;100.00
12468;BME280;57850;52.922;6.256;2023-01-28T11:54:09;103062.22;;;13.04;100.00
12468;BME280;57850;52.922;6.256;2023-01-28T11:56:52;103031.50;;;13.84;100.00
12468;BME280;57850;52.922;6.256;2023-01-28T11:59:35;103064.78;;;13.07;100.00
12468;BME280;57850;52.922;6.256;2023-01-28T12:02:19;103049.81;;;13.21;100.00
12468;BME280;57850;52.922;6.256;2023-01-28T12:05:04;103058.63;;;13.13;100.00
12468;BME280;57850;52.922;6.256;2023-01-28T12:07:46;103096.81;;;12.50;100.00
12468;BME280;57850;52.922;6.256;2023-01-28T12:10:19;103094.28;;;12.31;100.00
12468;BME280;57850;52.922;6.256;2023-01-28T12:13:12;103103.13;;;12.18;100.00
12468;BME280;57850;52.922;6.256;2023-01-28T12:16:01;103070.41;;;12.71;100.00
12468;BME280;57850;52.922;6.256;2023-01-28T12:18:54;103072.28;;;12.57;100.00
12468;BME280;57850;52.922;6.256;2023-01-28T12:21:35;103014.00;;;13.20;100.00
12468;BME280;57850;52.922;6.256;2023-01-28T12:24:20;103051.44;;;12.45;100.00
12468;BME280;57850;52.922;6.256;2023-01-28T12:26:52;103046.13;;;12.51;100.00
12468;BME280;57850;52.922;6.256;2023-01-28T12:29:28;103045.41;;;12.35;100.00
12468;BME280;57850;52.922;6.256;2023-01-28T12:32:11;103093.78;;;11.72;100.00
12468;BME280;57850;52.922;6.256;2023-01-28T12:34:57;103057.72;;;12.24;100.00
12468;BME280;57850;52.922;6.256;2023-01-28T12:37:38;103099.88;;;11.69;100.00
12468;BME280;57850;52.922;6.256;2023-01-28T12:40:21;103082.25;;;12.06;100.00
12468;BME280;57850;52.922;6.256;2023-01-28T12:42:53;103054.09;;;12.43;100.00
12468;BME280;57850;52.922;6.256;2023-01-28T12:45:25;102982.25;;;13.43;100.00
12468;BME280;57850;52.922;6.256;2023-01-28T12:47:54;102922.09;;;14.38;100.00
12468;BME280;57850;52.922;6.256;2023-01-28T12:50:26;102900.50;;;14.68;100.00
12468;BME280;57850;52.922;6.256;2023-01-28T12:52:58;102886.75;;;14.97;100.00
12468;BME280;57850;52.922;6.256;2023-01-28T12:55:38;102938.53;;;14.00;100.00
12468;BME280;57850;52.922;6.256;2023-01-28T12:58:11;102893.13;;;14.85;100.00
12468;BME280;57850;52.922;6.256;2023-01-28T13:00:44;102841.59;;;16.21;100.00
12468;BME280;57850;52.922;6.256;2023-01-28T13:03:17;102841.38;;;15.96;100.00
12468;BME280;57850;52.922;6.256;2023-01-28T13:05:49;102866.78;;;15.99;100.00
12468;BME280;57850;52.922;6.256;2023-01-28T13:08:19;102982.50;;;13.23;100.00
12468;BME280;57850;52.922;6.256;2023-01-28T13:10:50;102870.13;;;15.33;100.00